createdAt,value
2023-04-26T20:02:00.020Z,28.77
2023-04-26T20:03:04.155Z,28.42
2023-04-26T20:04:08.147Z,27.27
2023-04-26T20:05:12.125Z,29.17
2023-04-26T20:06:15.766Z,27.30
2023-04-26T20:07:19.572Z,27.42
2023-04-26T20:08:23.296Z,27.23
2023-04-26T20:09:26.984Z,27.73
2023-04-26T20:10:31.853Z,26.75
2023-04-26T20:11:35.497Z,27.23
2023-04-26T20:12:39.132Z,27.60
2023-04-26T20:13:42.934Z,26.63
2023-04-26T20:14:46.602Z,27.80
2023-04-26T20:15:50.310Z,27.08
2023-04-26T20:16:54.072Z,26.35
2023-04-26T20:17:59.509Z,27.70
2023-04-26T20:19:03.342Z,29.75
2023-04-26T20:20:08.137Z,25.60
2023-04-26T20:21:11.940Z,27.40
2023-04-26T20:22:15.622Z,27.65
2023-04-26T20:23:19.328Z,25.70
2023-04-26T20:24:22.962Z,26.35
2023-04-26T20:25:26.691Z,25.00
2023-04-26T20:26:30.547Z,26.08
2023-04-26T20:27:34.374Z,27.30
2023-04-26T20:28:39.767Z,26.40
2023-04-26T20:29:43.713Z,26.08
2023-04-26T20:30:47.425Z,29.13
2023-04-26T20:31:51.267Z,27.60
2023-04-26T20:32:54.962Z,26.63
2023-04-26T20:34:00.839Z,27.08
2023-04-26T20:35:04.867Z,26.65
2023-04-26T20:36:08.536Z,27.27
2023-04-26T20:37:12.115Z,26.80
2023-04-26T20:38:15.740Z,28.13
2023-04-26T20:39:19.422Z,26.98
2023-04-26T20:40:23.048Z,26.95
2023-04-26T20:41:26.716Z,27.40
2023-04-26T20:42:30.350Z,27.35
2023-04-26T20:43:34.035Z,27.98
2023-04-26T20:44:37.695Z,28.52
2023-04-26T20:45:41.935Z,27.80
2023-04-26T20:46:45.560Z,28.10
2023-04-26T20:47:49.276Z,28.13
2023-04-26T20:48:52.885Z,29.95
2023-04-26T20:49:58.251Z,28.80
2023-04-26T20:51:02.001Z,29.05
2023-04-26T20:52:06.017Z,27.83
2023-04-26T20:53:09.703Z,28.65
2023-04-26T20:54:13.418Z,28.95
2023-04-26T20:55:17.382Z,28.33
2023-04-26T20:56:21.109Z,29.20
2023-04-26T20:57:24.784Z,28.40
2023-04-26T20:58:28.400Z,28.65
2023-04-26T20:59:32.075Z,28.33
2023-04-26T21:00:35.805Z,28.38
2023-04-26T21:01:39.580Z,27.35
2023-04-26T21:02:43.402Z,28.53
2023-04-26T21:03:47.357Z,28.77
2023-04-26T21:04:51.320Z,28.13
2023-04-26T21:05:56.878Z,27.45
2023-04-26T21:07:00.522Z,28.27
2023-04-26T21:08:04.292Z,27.23
2023-04-26T21:09:08.424Z,28.33
2023-04-26T21:10:12.474Z,28.05
2023-04-26T21:11:16.272Z,27.42
2023-04-26T21:12:19.968Z,27.70
2023-04-26T21:13:23.572Z,27.43
2023-04-26T21:14:27.253Z,28.98
2023-04-26T21:15:30.962Z,26.38
2023-04-26T21:16:34.727Z,27.88
2023-04-26T21:17:38.453Z,27.70
2023-04-26T21:18:42.175Z,26.30
2023-04-26T21:19:46.008Z,26.83
2023-04-26T21:20:49.664Z,26.73
2023-04-26T21:21:54.977Z,26.08
2023-04-26T21:22:58.699Z,27.98
2023-04-26T21:24:02.456Z,26.63
2023-04-26T21:25:06.966Z,26.92
2023-04-26T21:26:10.797Z,25.52
2023-04-26T21:27:14.503Z,27.65
2023-04-26T21:28:18.126Z,27.00
2023-04-26T21:29:21.731Z,28.07
2023-04-26T21:30:25.510Z,28.58
2023-04-26T21:31:29.171Z,27.63
2023-04-26T21:32:32.821Z,27.30
2023-04-26T21:33:38.688Z,28.20
2023-04-26T21:34:42.397Z,26.93
2023-04-26T21:35:46.102Z,29.33
2023-04-26T21:36:49.805Z,25.55
2023-04-26T21:37:55.156Z,28.40
2023-04-26T21:38:58.740Z,27.17
2023-04-26T21:40:02.402Z,27.20
2023-04-26T21:41:06.191Z,27.80
2023-04-26T21:42:09.814Z,28.33
2023-04-26T21:43:13.535Z,27.13
2023-04-26T21:44:17.135Z,29.42
2023-04-26T21:45:21.007Z,29.20
2023-04-26T21:46:24.904Z,29.67
2023-04-26T21:47:28.554Z,29.13
2023-04-26T21:48:32.372Z,28.70
2023-04-26T21:49:36.007Z,28.77
2023-04-26T21:50:39.688Z,28.33
2023-04-26T21:51:43.387Z,29.60
2023-04-26T21:52:47.164Z,28.67
2023-04-26T21:53:52.495Z,28.55
2023-04-26T21:54:56.208Z,28.30
2023-04-26T21:56:00.008Z,27.93
2023-04-26T21:57:04.020Z,28.55
2023-04-26T21:58:07.742Z,29.70
2023-04-26T21:59:11.730Z,29.30
2023-04-26T22:00:16.097Z,28.88
2023-04-26T22:01:19.827Z,28.60
2023-04-26T22:02:23.590Z,29.58
2023-04-26T22:03:27.547Z,27.80
2023-04-26T22:04:31.443Z,29.15
2023-04-26T22:05:35.213Z,29.77
2023-04-26T22:06:38.945Z,28.93
2023-04-26T22:07:42.574Z,30.05
2023-04-26T22:08:46.140Z,29.38
2023-04-26T22:09:51.477Z,30.33
2023-04-26T22:10:55.075Z,29.67
2023-04-26T22:11:58.790Z,28.67
2023-04-26T22:13:02.481Z,28.33
2023-04-26T22:14:06.244Z,28.73
2023-04-26T22:15:10.531Z,28.40
2023-04-26T22:16:14.161Z,27.40
2023-04-26T22:17:17.881Z,29.40
2023-04-26T22:18:21.603Z,28.90
2023-04-26T22:19:25.369Z,28.95
2023-04-26T22:20:29.069Z,29.30
2023-04-26T22:21:32.808Z,30.65
2023-04-26T22:22:36.453Z,29.03
2023-04-26T22:23:40.145Z,29.73
2023-04-26T22:24:43.922Z,29.92
2023-04-26T22:25:49.262Z,29.52
2023-04-26T22:26:52.910Z,31.17
2023-04-26T22:27:56.645Z,30.43
2023-04-26T22:29:00.360Z,30.80
2023-04-26T22:30:12.735Z,30.10
2023-04-26T22:31:20.425Z,29.38
2023-04-26T22:32:24.484Z,30.65
2023-04-26T22:33:28.228Z,30.10
2023-04-26T22:34:31.903Z,29.20
2023-04-26T22:35:38.355Z,29.95
2023-04-26T22:36:42.105Z,30.80
2023-04-26T22:37:45.905Z,30.83
2023-04-26T22:38:49.656Z,30.23
2023-04-26T22:39:56.095Z,31.13
2023-04-26T22:41:01.495Z,31.33
2023-04-26T22:42:05.371Z,31.02
2023-04-26T22:43:08.981Z,30.33
2023-04-26T22:44:12.584Z,31.60
2023-04-26T22:45:16.437Z,31.77
2023-04-26T22:46:22.743Z,31.70
2023-04-26T22:47:27.165Z,30.92
2023-04-26T22:48:30.930Z,32.03
2023-04-26T22:49:34.581Z,31.17
2023-04-26T22:50:38.349Z,30.73
2023-04-26T22:51:45.954Z,31.58
2023-04-26T22:52:54.609Z,31.42
2023-04-26T22:53:58.348Z,30.50
2023-04-26T22:55:02.116Z,30.50
2023-04-26T22:56:08.091Z,31.05
2023-04-26T22:57:11.682Z,32.03
2023-04-26T22:58:15.386Z,31.30
2023-04-26T22:59:19.033Z,32.38
2023-04-26T23:00:24.820Z,31.40
2023-04-26T23:01:29.512Z,30.65
2023-04-26T23:02:33.587Z,30.98
2023-04-26T23:03:37.603Z,32.22
2023-04-26T23:04:41.590Z,31.85
2023-04-26T23:05:45.270Z,30.90
2023-04-26T23:06:48.970Z,30.98
2023-04-26T23:07:52.725Z,31.45
2023-04-26T23:08:56.505Z,32.25
2023-04-26T23:10:00.278Z,32.58
2023-04-26T23:11:09.836Z,32.80
2023-04-26T23:12:17.204Z,31.73
2023-04-26T23:13:20.855Z,31.60
2023-04-26T23:14:24.604Z,30.58
2023-04-26T23:15:28.427Z,34.45
2023-04-26T23:16:32.238Z,33.00
2023-04-26T23:17:36.081Z,34.25
2023-04-26T23:18:39.868Z,34.13
2023-04-26T23:19:43.695Z,33.80
2023-04-26T23:20:47.380Z,34.42
2023-04-26T23:21:51.269Z,33.33
2023-04-26T23:22:54.834Z,33.65
2023-04-26T23:23:58.466Z,35.70
2023-04-26T23:25:02.282Z,36.13
2023-04-26T23:26:08.237Z,34.03
2023-04-26T23:27:13.801Z,34.50
2023-04-26T23:28:17.416Z,34.08
2023-04-26T23:29:21.245Z,33.70
2023-04-26T23:30:25.012Z,32.40
2023-04-26T23:31:28.812Z,34.92
2023-04-26T23:32:32.556Z,33.80
2023-04-26T23:33:36.301Z,33.45
2023-04-26T23:34:40.005Z,32.38
2023-04-26T23:35:43.687Z,31.90
2023-04-26T23:36:47.449Z,32.95
2023-04-26T23:37:51.091Z,32.60
2023-04-26T23:38:54.817Z,31.92
2023-04-26T23:39:58.486Z,32.60
2023-04-26T23:41:02.135Z,33.13
2023-04-26T23:42:05.873Z,36.38
2023-04-26T23:43:11.162Z,33.63
2023-04-26T23:44:14.896Z,35.80
2023-04-26T23:45:18.650Z,34.92
2023-04-26T23:46:22.453Z,34.13
2023-04-26T23:47:26.240Z,33.53
2023-04-26T23:48:30.057Z,32.17
2023-04-26T23:49:33.878Z,34.20
2023-04-26T23:50:37.692Z,32.83
2023-04-26T23:51:52.808Z,32.25
2023-04-26T23:52:56.491Z,31.25
2023-04-26T23:54:00.263Z,30.10
2023-04-26T23:55:04.073Z,34.03
2023-04-26T23:56:08.005Z,31.98
2023-04-26T23:57:11.698Z,32.63
2023-04-26T23:58:17.017Z,33.13
2023-04-26T23:59:20.707Z,32.47
